createdAt,value
2023-02-12T00:00:19.908Z,89
2023-02-12T00:01:27.781Z,88
2023-02-12T00:02:38.163Z,88
2023-02-12T00:03:45.193Z,88
2023-02-12T00:04:51.945Z,88
2023-02-12T00:05:59.056Z,89
2023-02-12T00:07:08.478Z,88
2023-02-12T00:08:16.774Z,88
2023-02-12T00:09:23.619Z,88
2023-02-12T00:10:30.546Z,88
2023-02-12T00:11:38.553Z,88
2023-02-12T00:12:46.170Z,88
2023-02-12T00:13:53.042Z,88
2023-02-12T00:14:59.908Z,88
2023-02-12T00:16:07.696Z,88
2023-02-12T00:17:14.481Z,88
2023-02-12T00:18:21.487Z,89
2023-02-12T00:19:29.414Z,88
2023-02-12T00:20:36.251Z,88
2023-02-12T00:21:44.236Z,89
2023-02-12T00:22:51.106Z,89
2023-02-12T00:23:57.960Z,89
2023-02-12T00:25:04.815Z,89
2023-02-12T00:26:11.938Z,88
2023-02-12T00:27:19.562Z,88
2023-02-12T00:28:27.396Z,88
2023-02-12T00:29:35.258Z,88
2023-02-12T00:30:42.124Z,89
2023-02-12T00:31:49.100Z,88
2023-02-12T00:32:55.866Z,89
2023-02-12T00:34:05.674Z,88
2023-02-12T00:35:13.934Z,89
2023-02-12T00:36:20.950Z,89
2023-02-12T00:37:27.945Z,89
2023-02-12T00:38:35.830Z,89
2023-02-12T00:39:42.694Z,89
2023-02-12T00:40:52.247Z,89
2023-02-12T00:41:59.118Z,89
2023-02-12T00:43:05.994Z,89
2023-02-12T00:44:14.670Z,89
2023-02-12T00:45:22.522Z,89
2023-02-12T00:46:31.611Z,89
2023-02-12T00:47:39.413Z,89
2023-02-12T00:48:47.372Z,89
2023-02-12T00:49:55.030Z,89
2023-02-12T00:51:02.796Z,89
2023-02-12T00:52:10.758Z,89
2023-02-12T00:53:17.594Z,89
2023-02-12T00:54:26.278Z,89
2023-02-12T00:55:33.219Z,89
2023-02-12T00:56:41.969Z,89
2023-02-12T00:57:49.011Z,90
2023-02-12T00:58:55.954Z,89
2023-02-12T01:00:02.785Z,89
2023-02-12T01:01:10.029Z,89
2023-02-12T01:02:17.742Z,89
2023-02-12T01:03:25.702Z,89
2023-02-12T01:04:33.563Z,89
2023-02-12T01:05:40.584Z,89
2023-02-12T01:06:48.124Z,89
2023-02-12T01:07:55.994Z,89
2023-02-12T01:09:04.749Z,89
2023-02-12T01:10:12.568Z,89
2023-02-12T01:11:19.525Z,89
2023-02-12T01:12:26.501Z,89
2023-02-12T01:13:33.302Z,89
2023-02-12T01:14:41.028Z,89
2023-02-12T01:15:48.055Z,88
2023-02-12T01:16:54.754Z,89
2023-02-12T01:18:02.497Z,89
2023-02-12T01:19:10.446Z,89
2023-02-12T01:20:17.678Z,89
2023-02-12T01:21:26.070Z,89
2023-02-12T01:22:32.929Z,89
2023-02-12T01:23:40.137Z,89
2023-02-12T01:24:48.029Z,89
2023-02-12T01:25:55.447Z,89
2023-02-12T01:27:03.274Z,89
2023-02-12T01:28:11.212Z,89
2023-02-12T01:29:18.063Z,89
2023-02-12T01:30:25.875Z,89
2023-02-12T01:31:33.117Z,89
2023-02-12T01:32:39.746Z,89
2023-02-12T01:33:46.607Z,89
2023-02-12T01:34:55.944Z,89
2023-02-12T01:36:03.795Z,89
2023-02-12T01:37:10.966Z,89
2023-02-12T01:38:19.562Z,89
2023-02-12T01:39:27.463Z,89
2023-02-12T01:40:38.176Z,89
2023-02-12T01:41:45.015Z,89
2023-02-12T01:42:51.847Z,89
2023-02-12T01:44:00.451Z,89
2023-02-12T01:45:17.624Z,89
2023-02-12T01:46:32.652Z,89
2023-02-12T01:47:39.963Z,89
2023-02-12T01:48:47.843Z,89
2023-02-12T01:49:55.084Z,89
2023-02-12T01:51:05.324Z,89
2023-02-12T01:52:12.198Z,89
2023-02-12T01:53:24.296Z,89
2023-02-12T01:54:32.237Z,89
2023-02-12T01:55:40.031Z,89
2023-02-12T01:56:46.935Z,89
2023-02-12T01:57:54.586Z,89
2023-02-12T01:59:02.342Z,89
2023-02-12T02:00:12.307Z,89
2023-02-12T02:01:21.792Z,89
2023-02-12T02:02:28.703Z,89
2023-02-12T02:03:35.746Z,89
2023-02-12T02:04:43.222Z,89
2023-02-12T02:05:51.839Z,89
2023-02-12T02:07:01.695Z,89
2023-02-12T02:08:08.655Z,89
2023-02-12T02:09:16.891Z,89
2023-02-12T02:10:23.750Z,89
2023-02-12T02:11:30.638Z,89
2023-02-12T02:12:42.657Z,90
2023-02-12T02:13:54.640Z,90
2023-02-12T02:15:07.556Z,90
2023-02-12T02:16:16.648Z,90
2023-02-12T02:17:23.452Z,89
2023-02-12T02:18:41.541Z,89
2023-02-12T02:20:00.697Z,90
2023-02-12T02:21:17.919Z,89
2023-02-12T02:22:33.723Z,89
2023-02-12T02:23:40.579Z,89
2023-02-12T02:24:53.727Z,89
2023-02-12T02:26:10.826Z,89
2023-02-12T02:27:17.825Z,89
2023-02-12T02:28:28.601Z,90
2023-02-12T02:29:45.750Z,90
2023-02-12T02:30:57.958Z,90
2023-02-12T02:32:11.065Z,89
2023-02-12T02:33:25.620Z,90
2023-02-12T02:34:40.658Z,90
2023-02-12T02:35:56.938Z,89
2023-02-12T02:37:15.426Z,89
2023-02-12T02:38:24.246Z,89
2023-02-12T02:39:33.917Z,89
2023-02-12T02:40:41.875Z,89
2023-02-12T02:41:56.737Z,89
2023-02-12T02:43:03.572Z,89
2023-02-12T02:44:15.560Z,89
2023-02-12T02:45:25.405Z,89
2023-02-12T02:46:35.329Z,89
2023-02-12T02:47:48.130Z,89
2023-02-12T02:48:59.376Z,89
2023-02-12T02:50:09.222Z,89
2023-02-12T02:51:16.093Z,89
2023-02-12T02:52:25.878Z,89
2023-02-12T02:53:35.478Z,89
2023-02-12T02:54:53.600Z,89
2023-02-12T02:56:00.492Z,89
2023-02-12T02:57:07.477Z,89
2023-02-12T02:58:19.516Z,89
2023-02-12T02:59:29.327Z,89
2023-02-12T03:00:36.379Z,89
2023-02-12T03:01:45.361Z,89
2023-02-12T03:02:57.602Z,89
2023-02-12T03:04:07.200Z,89
2023-02-12T03:05:19.150Z,89
2023-02-12T03:06:27.630Z,89
2023-02-12T03:07:44.409Z,89
2023-02-12T03:08:53.331Z,88
2023-02-12T03:10:00.297Z,89
2023-02-12T03:11:11.161Z,89
2023-02-12T03:12:18.006Z,89
2023-02-12T03:13:24.845Z,89
2023-02-12T03:14:31.797Z,89
2023-02-12T03:15:39.680Z,88
2023-02-12T03:16:51.688Z,88
2023-02-12T03:18:05.200Z,88
2023-02-12T03:19:12.029Z,88
2023-02-12T03:20:20.331Z,88
2023-02-12T03:21:29.882Z,88
2023-02-12T03:22:46.975Z,88
2023-02-12T03:23:57.491Z,88
2023-02-12T03:25:04.343Z,88
2023-02-12T03:26:16.305Z,88
2023-02-12T03:27:25.063Z,88
2023-02-12T03:28:37.170Z,88
2023-02-12T03:29:43.899Z,88
2023-02-12T03:30:51.641Z,88
2023-02-12T03:32:06.303Z,88
2023-02-12T03:33:18.506Z,88
2023-02-12T03:34:26.370Z,88
2023-02-12T03:35:39.258Z,88
2023-02-12T03:36:48.059Z,88
2023-02-12T03:37:58.029Z,88
2023-02-12T03:39:06.934Z,88
2023-02-12T03:40:16.980Z,88
2023-02-12T03:41:24.017Z,88
2023-02-12T03:42:31.755Z,88
2023-02-12T03:43:48.902Z,88
2023-02-12T03:44:57.425Z,88
2023-02-12T03:46:15.545Z,88
2023-02-12T03:47:32.690Z,88
2023-02-12T03:48:48.703Z,88
2023-02-12T03:50:03.850Z,88
2023-02-12T03:51:18.578Z,88
2023-02-12T03:52:33.323Z,88
2023-02-12T03:53:40.174Z,89
2023-02-12T03:54:48.016Z,89
2023-02-12T03:55:55.119Z,88
2023-02-12T03:57:09.727Z,88
2023-02-12T03:58:21.902Z,88
2023-02-12T03:59:28.918Z,88
2023-02-12T04:00:35.701Z,88
2023-02-12T04:01:43.402Z,88
2023-02-12T04:02:50.099Z,89
2023-02-12T04:03:58.188Z,89
2023-02-12T04:05:07.872Z,88
2023-02-12T04:06:19.840Z,88
2023-02-12T04:07:26.729Z,89
2023-02-12T04:08:34.597Z,88
2023-02-12T04:09:41.519Z,88
2023-02-12T04:10:49.447Z,88
2023-02-12T04:11:57.138Z,88
2023-02-12T04:13:09.138Z,88
2023-02-12T04:14:24.030Z,89
2023-02-12T04:15:37.190Z,89
2023-02-12T04:16:48.005Z,89
2023-02-12T04:17:58.458Z,88
2023-02-12T04:19:09.570Z,88
2023-02-12T04:20:16.397Z,88
2023-02-12T04:21:32.256Z,89
2023-02-12T04:22:46.936Z,89
2023-02-12T04:24:04.114Z,89
2023-02-12T04:25:21.493Z,88
2023-02-12T04:26:33.605Z,89
2023-02-12T04:27:40.786Z,88
2023-02-12T04:28:55.877Z,88
2023-02-12T04:30:13.025Z,88
2023-02-12T04:31:26.258Z,88
2023-02-12T04:32:36.692Z,89
2023-02-12T04:33:51.381Z,88
2023-02-12T04:35:04.292Z,88
2023-02-12T04:36:17.345Z,88
2023-02-12T04:37:24.300Z,88
2023-02-12T04:38:39.626Z,89
2023-02-12T04:39:47.611Z,89
2023-02-12T04:40:55.624Z,88
2023-02-12T04:42:02.441Z,88
2023-02-12T04:43:09.330Z,88
2023-02-12T04:44:16.933Z,89
2023-02-12T04:45:26.863Z,89
2023-02-12T04:46:33.786Z,89
2023-02-12T04:47:40.617Z,88
2023-02-12T04:48:49.503Z,88
2023-02-12T04:49:59.768Z,89
2023-02-12T04:51:06.633Z,89
2023-02-12T04:52:13.476Z,88
2023-02-12T04:53:21.785Z,88
2023-02-12T04:54:31.997Z,88
2023-02-12T04:55:38.925Z,88
2023-02-12T04:56:46.719Z,88
2023-02-12T04:57:53.711Z,88
2023-02-12T04:59:04.440Z,88
2023-02-12T05:00:11.436Z,88
2023-02-12T05:01:18.533Z,88
2023-02-12T05:02:27.227Z,88
2023-02-12T05:03:34.129Z,88
2023-02-12T05:04:40.907Z,88
2023-02-12T05:05:50.276Z,88
2023-02-12T05:06:57.166Z,88
2023-02-12T05:08:06.927Z,88
2023-02-12T05:09:13.927Z,88
2023-02-12T05:10:20.764Z,88
2023-02-12T05:11:27.567Z,88
2023-02-12T05:12:34.440Z,88
2023-02-12T05:13:41.305Z,88
2023-02-12T05:14:49.144Z,88
2023-02-12T05:15:56.180Z,88
2023-02-12T05:17:03.617Z,88
2023-02-12T05:18:10.414Z,88
2023-02-12T05:19:17.257Z,88
2023-02-12T05:20:25.865Z,88
2023-02-12T05:21:33.800Z,88
2023-02-12T05:22:42.227Z,88
2023-02-12T05:23:50.172Z,88
2023-02-12T05:24:57.939Z,88
2023-02-12T05:26:04.756Z,88
2023-02-12T05:27:11.780Z,87
2023-02-12T05:28:19.712Z,87
2023-02-12T05:29:26.628Z,87
2023-02-12T05:30:34.902Z,87
2023-02-12T05:31:41.883Z,87
2023-02-12T05:32:48.760Z,87
2023-02-12T05:33:57.040Z,87
2023-02-12T05:35:03.996Z,87
2023-02-12T05:36:14.172Z,87
2023-02-12T05:37:24.179Z,87
2023-02-12T05:38:32.103Z,88
2023-02-12T05:39:39.114Z,87
2023-02-12T05:40:45.974Z,87
2023-02-12T05:41:53.131Z,87
2023-02-12T05:43:00.198Z,87
2023-02-12T05:44:10.110Z,87
2023-02-12T05:45:16.973Z,87
2023-02-12T05:46:23.882Z,87
2023-02-12T05:47:33.656Z,87
2023-02-12T05:48:40.507Z,87
2023-02-12T05:49:48.945Z,87
2023-02-12T05:50:56.882Z,87
2023-02-12T05:52:09.762Z,87
2023-02-12T05:53:18.259Z,87
2023-02-12T05:54:24.848Z,87
2023-02-12T05:55:31.661Z,87
2023-02-12T05:56:38.638Z,87
2023-02-12T05:57:48.785Z,87
2023-02-12T05:58:57.388Z,87
2023-02-12T06:00:07.075Z,87
2023-02-12T06:01:14.195Z,87
2023-02-12T06:02:23.940Z,87
2023-02-12T06:03:32.933Z,87
2023-02-12T06:04:40.732Z,87
2023-02-12T06:05:47.603Z,87
2023-02-12T06:06:54.440Z,87
2023-02-12T06:08:01.391Z,87
2023-02-12T06:09:08.312Z,87
2023-02-12T06:10:16.088Z,87
2023-02-12T06:11:23.116Z,87
2023-02-12T06:12:30.963Z,87
2023-02-12T06:13:40.999Z,87
2023-02-12T06:14:48.003Z,87
2023-02-12T06:15:55.491Z,87
2023-02-12T06:17:01.981Z,87
2023-02-12T06:18:10.147Z,87
2023-02-12T06:19:17.903Z,87
2023-02-12T06:20:25.130Z,87
2023-02-12T06:21:32.090Z,87
2023-02-12T06:22:38.906Z,87
2023-02-12T06:23:46.190Z,87
2023-02-12T06:24:57.238Z,87
2023-02-12T06:26:04.134Z,87
2023-02-12T06:27:11.018Z,87
2023-02-12T06:28:18.012Z,87
2023-02-12T06:29:24.948Z,87
2023-02-12T06:30:31.876Z,87
2023-02-12T06:31:39.579Z,87
2023-02-12T06:32:46.341Z,87
2023-02-12T06:33:54.140Z,87
2023-02-12T06:35:02.596Z,87
2023-02-12T06:36:13.176Z,87
2023-02-12T06:37:20.092Z,87
2023-02-12T06:38:27.934Z,87
2023-02-12T06:39:34.953Z,87
2023-02-12T06:40:42.020Z,87
2023-02-12T06:41:54.104Z,87
2023-02-12T06:43:01.285Z,87
2023-02-12T06:44:09.007Z,87
2023-02-12T06:45:16.803Z,87
2023-02-12T06:46:23.807Z,87
2023-02-12T06:47:30.571Z,87
2023-02-12T06:48:37.553Z,87
2023-02-12T06:49:45.880Z,87
2023-02-12T06:50:52.754Z,87
2023-02-12T06:52:02.930Z,87
2023-02-12T06:53:07.328Z,87
2023-02-12T06:54:14.117Z,87
2023-02-12T06:55:21.963Z,87
2023-02-12T06:56:32.224Z,87
2023-02-12T06:57:40.641Z,87
2023-02-12T06:58:48.530Z,87
2023-02-12T06:59:59.128Z,87
2023-02-12T07:01:07.124Z,87
2023-02-12T07:02:19.001Z,87
2023-02-12T07:03:26.936Z,87
2023-02-12T07:04:35.509Z,87
2023-02-12T07:05:44.357Z,87
2023-02-12T07:06:51.219Z,87
2023-02-12T07:07:57.976Z,87
2023-02-12T07:09:07.516Z,87
2023-02-12T07:10:14.424Z,87
2023-02-12T07:11:23.315Z,87
2023-02-12T07:12:30.408Z,87
2023-02-12T07:13:37.319Z,87
2023-02-12T07:14:45.107Z,87
2023-02-12T07:15:52.082Z,87
2023-02-12T07:16:58.933Z,87
2023-02-12T07:18:05.704Z,87
2023-02-12T07:19:12.584Z,87
2023-02-12T07:20:19.364Z,87
2023-02-12T07:21:27.220Z,87
2023-02-12T07:22:37.522Z,87
2023-02-12T07:23:46.057Z,87
2023-02-12T07:24:53.128Z,87
2023-02-12T07:26:01.085Z,87
2023-02-12T07:27:08.296Z,87
2023-02-12T07:28:17.202Z,87
2023-02-12T07:29:24.336Z,87
2023-02-12T07:30:32.766Z,87
2023-02-12T07:31:41.085Z,87
2023-02-12T07:32:49.208Z,87
2023-02-12T07:33:59.052Z,87
2023-02-12T07:35:06.093Z,87
2023-02-12T07:36:13.294Z,87
2023-02-12T07:37:21.352Z,87
2023-02-12T07:38:29.257Z,87
2023-02-12T07:39:37.093Z,87
2023-02-12T07:40:50.699Z,87
2023-02-12T07:41:58.568Z,87
2023-02-12T07:43:07.278Z,87
2023-02-12T07:44:14.226Z,87
2023-02-12T07:45:21.076Z,87
2023-02-12T07:46:28.721Z,87
2023-02-12T07:47:35.625Z,87
2023-02-12T07:48:46.581Z,87
2023-02-12T07:49:54.049Z,87
2023-02-12T07:51:02.560Z,87
2023-02-12T07:52:11.543Z,87
2023-02-12T07:53:17.847Z,87
2023-02-12T07:54:24.665Z,87
2023-02-12T07:55:32.494Z,87
2023-02-12T07:56:40.112Z,87
2023-02-12T07:57:46.925Z,87
2023-02-12T07:58:53.780Z,87
2023-02-12T08:00:01.526Z,87
2023-02-12T08:01:08.726Z,87
2023-02-12T08:02:17.711Z,86
2023-02-12T08:03:24.401Z,86
2023-02-12T08:04:31.445Z,87
2023-02-12T08:05:38.230Z,87
2023-02-12T08:06:45.197Z,87
2023-02-12T08:07:52.077Z,87
2023-02-12T08:08:59.057Z,87
2023-02-12T08:10:05.917Z,87
2023-02-12T08:11:14.894Z,87
2023-02-12T08:12:21.825Z,87
2023-02-12T08:13:30.397Z,87
2023-02-12T08:14:37.345Z,87
2023-02-12T08:15:45.277Z,86
2023-02-12T08:16:52.249Z,87
2023-02-12T08:17:59.934Z,87
2023-02-12T08:19:16.821Z,87
2023-02-12T08:20:14.832Z,87
2023-02-12T08:21:21.814Z,87
2023-02-12T08:22:28.766Z,87
2023-02-12T08:23:35.801Z,87
2023-02-12T08:24:45.328Z,87
2023-02-12T08:25:52.194Z,87
2023-02-12T08:27:00.228Z,86
2023-02-12T08:28:09.136Z,87
2023-02-12T08:29:15.885Z,86
2023-02-12T08:30:22.763Z,86
2023-02-12T08:31:29.685Z,86
2023-02-12T08:32:36.573Z,86
2023-02-12T08:33:43.427Z,86
2023-02-12T08:34:50.377Z,86
2023-02-12T08:35:59.647Z,87
2023-02-12T08:37:10.069Z,86
2023-02-12T08:38:18.385Z,86
2023-02-12T08:39:27.199Z,87
2023-02-12T08:40:34.276Z,86
2023-02-12T08:41:43.050Z,87
2023-02-12T08:42:50.035Z,87
2023-02-12T08:43:58.445Z,87
2023-02-12T08:45:08.122Z,86
2023-02-12T08:46:16.292Z,86
2023-02-12T08:47:23.158Z,86
2023-02-12T08:48:32.268Z,86
2023-02-12T08:49:39.822Z,86
2023-02-12T08:50:46.714Z,86
2023-02-12T08:51:53.608Z,86
2023-02-12T08:53:00.444Z,87
2023-02-12T08:54:07.460Z,86
2023-02-12T08:55:14.509Z,87
2023-02-12T08:56:21.423Z,87
2023-02-12T08:57:28.458Z,86
2023-02-12T08:58:35.220Z,86
2023-02-12T08:59:42.090Z,86
2023-02-12T09:00:48.929Z,87
2023-02-12T09:01:56.136Z,87
2023-02-12T09:03:03.093Z,87
2023-02-12T09:04:10.017Z,87
2023-02-12T09:05:16.939Z,87
2023-02-12T09:06:23.955Z,87
2023-02-12T09:07:30.834Z,87
2023-02-12T09:08:37.758Z,87
2023-02-12T09:09:44.562Z,86
2023-02-12T09:10:51.482Z,86
2023-02-12T09:11:58.313Z,86
2023-02-12T09:13:05.194Z,86
2023-02-12T09:14:12.035Z,86
2023-02-12T09:15:18.957Z,86
2023-02-12T09:16:25.851Z,86
2023-02-12T09:17:32.566Z,86
2023-02-12T09:18:39.472Z,86
2023-02-12T09:19:46.319Z,86
2023-02-12T09:20:53.162Z,86
2023-02-12T09:22:00.023Z,86
2023-02-12T09:23:07.018Z,86
2023-02-12T09:24:13.903Z,86
2023-02-12T09:25:20.799Z,86
2023-02-12T09:26:27.878Z,86
2023-02-12T09:27:34.851Z,86
2023-02-12T09:28:41.864Z,86
2023-02-12T09:29:48.717Z,85
2023-02-12T09:30:55.612Z,86
2023-02-12T09:32:02.438Z,85
2023-02-12T09:33:09.408Z,86
2023-02-12T09:34:16.468Z,86
2023-02-12T09:35:23.334Z,86
2023-02-12T09:36:30.218Z,86
2023-02-12T09:37:37.121Z,86
2023-02-12T09:38:44.001Z,86
2023-02-12T09:39:51.286Z,86
2023-02-12T09:40:57.750Z,86
2023-02-12T09:42:14.783Z,86
2023-02-12T09:43:24.531Z,86
2023-02-12T09:44:34.074Z,86
2023-02-12T09:45:45.970Z,85
2023-02-12T09:47:00.515Z,85
2023-02-12T09:48:17.451Z,85
2023-02-12T09:49:30.331Z,85
2023-02-12T09:50:47.294Z,85
2023-02-12T09:51:57.023Z,85
2023-02-12T09:53:04.015Z,85
2023-02-12T09:54:10.864Z,85
2023-02-12T09:55:17.733Z,85
2023-02-12T09:56:24.561Z,85
2023-02-12T09:57:31.497Z,85
2023-02-12T09:58:38.479Z,85
2023-02-12T09:59:50.451Z,85
2023-02-12T10:01:02.376Z,85
2023-02-12T10:02:17.171Z,85
2023-02-12T10:03:28.944Z,85
2023-02-12T10:04:35.784Z,85
2023-02-12T10:05:44.816Z,85
2023-02-12T10:06:54.589Z,85
2023-02-12T10:08:01.678Z,84
2023-02-12T10:09:18.694Z,85
2023-02-12T10:10:33.154Z,85
2023-02-12T10:11:50.142Z,85
2023-02-12T10:12:57.070Z,85
2023-02-12T10:14:11.917Z,85
2023-02-12T10:15:23.814Z,85
2023-02-12T10:16:33.350Z,85
2023-02-12T10:17:44.555Z,85
2023-02-12T10:18:53.694Z,85
2023-02-12T10:20:06.465Z,85
2023-02-12T10:21:18.503Z,85
2023-02-12T10:22:31.204Z,85
2023-02-12T10:23:45.858Z,85
2023-02-12T10:24:57.810Z,85
2023-02-12T10:26:12.453Z,85
2023-02-12T10:27:24.456Z,84
2023-02-12T10:28:41.559Z,84
2023-02-12T10:29:52.606Z,85
2023-02-12T10:30:59.600Z,84
2023-02-12T10:32:06.492Z,84
2023-02-12T10:33:21.548Z,84
2023-02-12T10:34:34.470Z,84
2023-02-12T10:35:41.516Z,84
2023-02-12T10:36:55.950Z,85
2023-02-12T10:38:13.431Z,85
2023-02-12T10:39:23.477Z,85
2023-02-12T10:40:33.305Z,84
2023-02-12T10:41:43.602Z,84
2023-02-12T10:42:55.634Z,84
2023-02-12T10:44:08.944Z,84
2023-02-12T10:45:20.069Z,84
2023-02-12T10:46:32.234Z,84
2023-02-12T10:47:39.056Z,84
2023-02-12T10:48:45.935Z,84
2023-02-12T10:49:52.880Z,84
2023-02-12T10:51:04.777Z,83
2023-02-12T10:52:11.608Z,84
2023-02-12T10:53:28.594Z,84
2023-02-12T10:54:38.092Z,84
2023-02-12T10:55:48.024Z,84
2023-02-12T10:56:57.690Z,84
2023-02-12T10:58:09.853Z,84
2023-02-12T10:59:16.736Z,84
2023-02-12T11:00:26.289Z,84
2023-02-12T11:01:37.864Z,84
2023-02-12T11:02:44.790Z,84
2023-02-12T11:04:01.938Z,84
2023-02-12T11:05:19.058Z,84
2023-02-12T11:06:26.881Z,84
2023-02-12T11:07:33.710Z,84
2023-02-12T11:08:40.677Z,84
2023-02-12T11:09:47.475Z,84
2023-02-12T11:10:54.412Z,84
2023-02-12T11:12:11.170Z,84
2023-02-12T11:13:20.868Z,83
2023-02-12T11:14:30.659Z,84
2023-02-12T11:15:37.818Z,84
2023-02-12T11:16:49.775Z,84
2023-02-12T11:17:56.638Z,84
2023-02-12T11:19:06.398Z,84
2023-02-12T11:20:21.111Z,84
2023-02-12T11:21:29.107Z,84
2023-02-12T11:22:36.097Z,83
2023-02-12T11:23:43.059Z,83
2023-02-12T11:24:49.975Z,83
2023-02-12T11:25:57.304Z,83
2023-02-12T11:27:08.995Z,83
2023-02-12T11:28:16.705Z,83
2023-02-12T11:29:24.606Z,83
2023-02-12T11:30:31.387Z,83
2023-02-12T11:31:42.356Z,84
2023-02-12T11:32:49.157Z,83
2023-02-12T11:33:56.048Z,83
2023-02-12T11:35:15.810Z,82
2023-02-12T11:36:25.653Z,82
2023-02-12T11:37:32.903Z,82
2023-02-12T11:38:40.381Z,82
2023-02-12T11:39:54.984Z,82
2023-02-12T11:41:02.663Z,82
2023-02-12T11:42:14.614Z,82
2023-02-12T11:43:24.132Z,82
2023-02-12T11:44:31.209Z,83
2023-02-12T11:45:40.809Z,83
2023-02-12T11:46:53.907Z,83
2023-02-12T11:48:04.171Z,84
2023-02-12T11:49:25.851Z,83
2023-02-12T11:50:34.490Z,83
2023-02-12T11:51:41.506Z,84
2023-02-12T11:52:51.537Z,84
2023-02-12T11:54:01.542Z,83
2023-02-12T11:55:08.715Z,83
2023-02-12T11:56:25.789Z,83
2023-02-12T11:57:43.647Z,83
2023-02-12T11:58:50.613Z,83
2023-02-12T11:59:57.606Z,83
2023-02-12T12:01:04.550Z,82
2023-02-12T12:02:16.058Z,82
2023-02-12T12:03:27.521Z,82
2023-02-12T12:04:41.796Z,82
2023-02-12T12:05:48.728Z,81
2023-02-12T12:06:55.821Z,81
2023-02-12T12:08:08.964Z,81
2023-02-12T12:09:15.980Z,81
2023-02-12T12:10:28.019Z,81
2023-02-12T12:11:43.127Z,82
2023-02-12T12:12:55.252Z,83
2023-02-12T12:14:02.183Z,83
2023-02-12T12:15:14.284Z,83
2023-02-12T12:16:29.849Z,82
2023-02-12T12:17:41.846Z,82
2023-02-12T12:18:56.615Z,82
2023-02-12T12:20:13.682Z,83
2023-02-12T12:21:20.875Z,83
2023-02-12T12:22:38.885Z,82
2023-02-12T12:23:53.867Z,82
2023-02-12T12:25:06.426Z,82
2023-02-12T12:26:26.135Z,82
2023-02-12T12:27:33.124Z,84
2023-02-12T12:28:48.187Z,83
2023-02-12T12:30:00.142Z,82
2023-02-12T12:31:07.451Z,82
2023-02-12T12:32:16.901Z,82
2023-02-12T12:33:24.401Z,81
2023-02-12T12:34:39.337Z,82
2023-02-12T12:35:46.532Z,81
2023-02-12T12:37:01.156Z,81
2023-02-12T12:38:13.211Z,81
2023-02-12T12:39:23.164Z,81
2023-02-12T12:40:30.263Z,81
2023-02-12T12:41:42.825Z,81
2023-02-12T12:42:59.925Z,80
2023-02-12T12:44:06.883Z,81
2023-02-12T12:45:18.954Z,82
2023-02-12T12:46:34.613Z,82
2023-02-12T12:47:51.724Z,81
2023-02-12T12:49:06.444Z,81
2023-02-12T12:50:13.375Z,81
2023-02-12T12:51:28.036Z,81
2023-02-12T12:52:43.820Z,81
2023-02-12T12:53:58.765Z,81
2023-02-12T12:55:13.265Z,81
2023-02-12T12:56:25.920Z,81
2023-02-12T12:57:37.963Z,80
2023-02-12T12:58:49.962Z,80
2023-02-12T13:00:08.344Z,80
2023-02-12T13:01:21.051Z,80
2023-02-12T13:02:36.090Z,79
2023-02-12T13:03:56.108Z,79
2023-02-12T13:05:11.086Z,78
2023-02-12T13:06:28.170Z,79
2023-02-12T13:07:45.993Z,78
2023-02-12T13:08:57.999Z,79
2023-02-12T13:10:10.026Z,79
2023-02-12T13:11:29.160Z,79
2023-02-12T13:12:39.185Z,80
2023-02-12T13:13:46.228Z,79
2023-02-12T13:14:53.287Z,79
2023-02-12T13:16:05.254Z,79
2023-02-12T13:17:22.511Z,79
2023-02-12T13:18:30.455Z,78
2023-02-12T13:19:48.291Z,78
2023-02-12T13:21:03.487Z,78
2023-02-12T13:22:18.360Z,78
2023-02-12T13:23:25.332Z,77
2023-02-12T13:24:40.263Z,77
2023-02-12T13:25:48.060Z,77
2023-02-12T13:27:05.141Z,77
2023-02-12T13:28:18.193Z,77
2023-02-12T13:29:28.133Z,77
2023-02-12T13:30:40.115Z,78
2023-02-12T13:31:50.282Z,78
2023-02-12T13:32:59.762Z,78
2023-02-12T13:34:09.732Z,78
2023-02-12T13:35:16.690Z,79
2023-02-12T13:36:23.605Z,78
2023-02-12T13:37:30.916Z,78
2023-02-12T13:38:45.517Z,78
2023-02-12T13:40:00.152Z,78
2023-02-12T13:41:07.074Z,77
2023-02-12T13:42:14.169Z,77
2023-02-12T13:43:32.167Z,77
2023-02-12T13:44:49.351Z,77
2023-02-12T13:46:02.135Z,76
2023-02-12T13:47:11.855Z,76
2023-02-12T13:48:21.686Z,76
2023-02-12T13:49:33.690Z,76
2023-02-12T13:50:46.510Z,76
2023-02-12T13:52:01.255Z,76
2023-02-12T13:53:13.819Z,76
2023-02-12T13:54:26.268Z,76
2023-02-12T13:55:33.158Z,76
2023-02-12T13:56:43.166Z,76
2023-02-12T13:57:53.173Z,76
2023-02-12T13:59:10.199Z,76
2023-02-12T14:00:27.256Z,76
2023-02-12T14:01:46.866Z,76
2023-02-12T14:02:51.640Z,75
2023-02-12T14:03:59.114Z,76
2023-02-12T14:05:16.097Z,76
2023-02-12T14:06:28.134Z,76
2023-02-12T14:07:35.496Z,76
2023-02-12T14:08:45.290Z,76
2023-02-12T14:09:58.186Z,76
2023-02-12T14:11:05.239Z,76
2023-02-12T14:12:16.600Z,76
2023-02-12T14:13:28.681Z,76
2023-02-12T14:14:35.590Z,75
2023-02-12T14:15:42.617Z,75
2023-02-12T14:16:54.644Z,76
2023-02-12T14:18:04.191Z,76
2023-02-12T14:19:11.188Z,76
2023-02-12T14:20:29.392Z,76
2023-02-12T14:21:39.638Z,76
2023-02-12T14:22:46.597Z,76
2023-02-12T14:23:54.391Z,76
2023-02-12T14:25:04.148Z,77
2023-02-12T14:26:21.235Z,77
2023-02-12T14:27:28.149Z,77
2023-02-12T14:28:40.219Z,77
2023-02-12T14:29:55.197Z,77
2023-02-12T14:31:10.601Z,76
2023-02-12T14:32:22.400Z,76
2023-02-12T14:33:39.724Z,77
2023-02-12T14:34:47.185Z,77
2023-02-12T14:35:54.594Z,77
2023-02-12T14:37:06.347Z,77
2023-02-12T14:38:18.954Z,77
2023-02-12T14:39:31.818Z,77
2023-02-12T14:40:38.981Z,77
2023-02-12T14:41:48.638Z,77
2023-02-12T14:42:55.657Z,77
2023-02-12T14:44:02.882Z,76
2023-02-12T14:45:20.035Z,76
2023-02-12T14:46:32.065Z,76
2023-02-12T14:47:38.991Z,77
2023-02-12T14:48:48.460Z,77
2023-02-12T14:49:55.358Z,77
2023-02-12T14:51:08.110Z,77
2023-02-12T14:52:17.631Z,77
2023-02-12T14:53:34.664Z,77
2023-02-12T14:54:41.546Z,77
2023-02-12T14:55:56.938Z,77
2023-02-12T14:57:03.609Z,77
2023-02-12T14:58:10.678Z,78
2023-02-12T14:59:17.613Z,77
2023-02-12T15:00:25.087Z,77
2023-02-12T15:01:39.359Z,77
2023-02-12T15:02:46.232Z,78
2023-02-12T15:04:01.793Z,78
2023-02-12T15:05:08.679Z,78
2023-02-12T15:06:20.852Z,78
2023-02-12T15:07:31.298Z,78
2023-02-12T15:08:44.140Z,78
2023-02-12T15:09:56.061Z,78
2023-02-12T15:11:08.104Z,78
2023-02-12T15:12:20.387Z,78
2023-02-12T15:13:35.215Z,78
2023-02-12T15:14:47.104Z,78
2023-02-12T15:15:56.031Z,78
2023-02-12T15:17:13.056Z,78
2023-02-12T15:18:24.564Z,79
2023-02-12T15:19:32.657Z,79
2023-02-12T15:20:52.558Z,79
2023-02-12T15:22:01.592Z,79
2023-02-12T15:23:19.144Z,79
2023-02-12T15:24:33.622Z,79
2023-02-12T15:25:40.504Z,79
2023-02-12T15:26:47.475Z,79
2023-02-12T15:27:54.469Z,80
2023-02-12T15:29:09.495Z,79
2023-02-12T15:30:26.209Z,80
2023-02-12T15:31:31.257Z,80
2023-02-12T15:32:38.202Z,80
2023-02-12T15:33:45.210Z,80
2023-02-12T15:34:52.124Z,80
2023-02-12T15:35:59.390Z,80
2023-02-12T15:37:05.886Z,80
2023-02-12T15:38:12.750Z,80
2023-02-12T15:39:24.652Z,80
2023-02-12T15:40:32.377Z,80
2023-02-12T15:41:39.311Z,80
2023-02-12T15:42:46.318Z,80
2023-02-12T15:43:58.441Z,80
2023-02-12T15:45:10.350Z,80
2023-02-12T15:46:18.227Z,80
2023-02-12T15:47:24.984Z,80
2023-02-12T15:48:32.709Z,80
2023-02-12T15:49:39.601Z,80
2023-02-12T15:50:47.004Z,80
2023-02-12T15:51:59.275Z,80
2023-02-12T15:53:06.174Z,80
2023-02-12T15:54:13.555Z,80
2023-02-12T15:55:22.749Z,80
2023-02-12T15:56:29.818Z,80
2023-02-12T15:57:39.536Z,80
2023-02-12T15:58:46.576Z,80
2023-02-12T15:59:59.092Z,80
2023-02-12T16:01:10.012Z,81
2023-02-12T16:02:20.165Z,81
2023-02-12T16:03:30.095Z,81
2023-02-12T16:04:36.999Z,81
2023-02-12T16:05:43.791Z,81
2023-02-12T16:06:50.637Z,81
2023-02-12T16:08:00.268Z,81
2023-02-12T16:09:07.204Z,81
2023-02-12T16:10:19.636Z,81
2023-02-12T16:11:26.456Z,81
2023-02-12T16:12:35.016Z,82
2023-02-12T16:13:44.600Z,82
2023-02-12T16:14:54.877Z,82
2023-02-12T16:16:03.151Z,82
2023-02-12T16:17:10.320Z,82
2023-02-12T16:18:22.376Z,82
2023-02-12T16:19:31.485Z,82
2023-02-12T16:20:38.576Z,83
2023-02-12T16:21:45.760Z,83
2023-02-12T16:23:00.580Z,83
2023-02-12T16:24:07.546Z,83
2023-02-12T16:25:23.569Z,83
2023-02-12T16:26:34.071Z,83
2023-02-12T16:27:41.231Z,83
2023-02-12T16:28:53.296Z,83
2023-02-12T16:30:00.431Z,83
2023-02-12T16:31:07.615Z,83